LEZG/ZAZ METAR and TAF weather

Enter ICAO airport designator
Station Type Date Time Source
LEZG METAR 2024/02/26 19:00 UTC NOAA

LEZG 261900Z 30016KT 9999 FEW040 BKN065 BKN075 09/04 Q1004


Station Type Date Time Source
LEZG Decoded METAR 2024/02/26 19:00 UTC NOAA

Zaragoza / Aeropuerto, Spain (LEZG) 41-40N 001-01W 258M
Feb 26, 2024 - 02:00 PM EST / 2024.02.26 1900 UTC
Wind: from the WNW (300 degrees) at 18 MPH (16 KT):0
Visibility: greater than 7 mile(s):0
Sky conditions: mostly cloudy
Temperature: 48 F (9 C)
Dew Point: 39 F (4 C)
Relative Humidity: 70%
Pressure (altimeter): 29.65 in. Hg (1004 hPa)
ob: LEZG 261900Z 30016KT 9999 FEW040 BKN065 BKN075 09/04 Q1004
cycle: 19

Station Type Date Time Source
LEZG TAF 2024/02/26 18:27 UTC NOAA